Time;durP1;ratioP1;P1;durP2;ratioP2;P2;SDS_P1;SDS_P2;PMS_P1;PMS_P2;Temp;Humidity;BMP_temperature;BMP_pressure;BME280_temperature;BME280_humidity;BME280_pressure;Samples;Min_cycle;Max_cycle;Signal;HPM_P1;HPM_P2
2022/08/14 00:00:48;;;;;;;3.45;1.90;;;17.90;79.30;;;17.87;59.12;96889.97;5024347;28;20075;-62
2022/08/14 00:03:30;;;;;;;2.45;2.00;;;17.90;79.30;;;17.84;59.15;96875.03;5020096;28;20083;-62
2022/08/14 00:05:59;;;;;;;2.42;2.00;;;17.90;79.40;;;17.79;59.78;96874.50;5020597;28;20030;-62
2022/08/14 00:08:25;;;;;;;2.50;2.10;;;17.80;79.80;;;17.74;60.33;96872.19;5022589;28;20065;-62
2022/08/14 00:10:51;;;;;;;3.10;1.98;;;17.80;80.20;;;17.72;60.99;96859.94;5020366;28;20108;-62
2022/08/14 00:13:27;;;;;;;2.65;2.08;;;17.70;80.80;;;17.67;61.47;96846.94;5018527;28;20048;-62
2022/08/14 00:15:54;;;;;;;4.72;2.05;;;17.70;81.20;;;17.64;61.63;96846.31;5019765;28;20028;-62
2022/08/14 00:18:22;;;;;;;4.43;2.10;;;17.60;81.10;;;17.61;61.69;96851.88;5021047;28;20029;-62
2022/08/14 00:20:49;;;;;;;4.10;2.50;;;17.60;81.30;;;17.59;61.88;96851.16;5019016;28;20485;-62
2022/08/14 00:23:17;;;;;;;3.08;2.20;;;17.60;81.40;;;17.55;62.05;96850.53;5021880;28;20071;-62
2022/08/14 00:25:47;;;;;;;7.40;2.58;;;17.60;81.70;;;17.53;62.56;96847.09;5019969;28;20033;-62
2022/08/14 00:28:13;;;;;;;6.80;2.60;;;17.50;82.00;;;17.50;63.17;96844.69;5020433;28;20037;-62
2022/08/14 00:30:40;;;;;;;3.13;2.30;;;17.50;82.50;;;17.41;63.83;96824.88;5021396;28;20392;-62
2022/08/14 00:33:06;;;;;;;4.60;2.67;;;17.50;82.90;;;17.39;63.85;96828.63;5020046;28;20069;-62
2022/08/14 00:35:33;;;;;;;3.10;2.50;;;17.40;83.00;;;17.38;64.26;96825.09;5021540;28;20036;-62
2022/08/14 00:37:59;;;;;;;2.67;2.20;;;17.40;83.20;;;17.33;64.85;96827.25;5020063;28;20025;-62
2022/08/14 00:40:25;;;;;;;3.38;2.55;;;17.30;83.70;;;17.26;65.80;96821.50;5019202;28;20274;-62
2022/08/14 00:42:51;;;;;;;3.03;2.28;;;17.30;84.30;;;17.19;65.70;96806.94;5017679;28;20032;-62
2022/08/14 00:45:18;;;;;;;4.18;2.60;;;17.30;84.40;;;17.21;65.85;96815.69;5020232;28;20741;-62
2022/08/14 00:47:47;;;;;;;4.30;2.45;;;17.20;84.50;;;17.18;66.46;96805.25;5020619;28;20113;-63
2022/08/14 00:50:17;;;;;;;4.35;2.90;;;17.20;85.00;;;17.14;66.87;96811.78;5020159;28;20331;-62
2022/08/14 00:52:45;;;;;;;2.97;2.63;;;17.20;85.30;;;17.10;67.08;96812.94;5019754;28;20505;-62
2022/08/14 00:55:11;;;;;;;2.90;2.40;;;17.10;85.40;;;17.07;67.32;96815.84;5019245;28;20025;-62
2022/08/14 00:57:38;;;;;;;4.13;2.90;;;17.10;85.70;;;17.02;67.95;96805.50;5023559;28;20033;-62
2022/08/14 01:00:13;;;;;;;4.53;2.72;;;17.10;86.10;;;17.03;68.29;96815.22;5019367;28;20017;-62
2022/08/14 01:02:42;;;;;;;3.58;2.78;;;17.10;86.50;;;17.02;69.28;96812.66;5020174;28;20378;-62
2022/08/14 01:05:22;;;;;;;3.95;2.97;;;17.10;87.00;;;16.98;69.29;96806.72;5007354;28;20096;-62
2022/08/14 01:07:55;;;;;;;3.30;2.75;;;17.10;87.00;;;16.96;68.92;96808.63;5022636;28;20167;-62
2022/08/14 01:10:21;;;;;;;3.67;2.90;;;17.00;86.90;;;16.92;69.74;96808.00;5025207;28;20112;-62
2022/08/14 01:12:49;;;;;;;4.22;2.85;;;17.00;87.40;;;16.90;69.83;96809.06;5023488;28;20029;-62
2022/08/14 01:15:20;;;;;;;4.60;3.25;;;17.00;87.50;;;16.87;70.02;96799.50;5023652;28;20026;-62
2022/08/14 01:23:15;;;;;;;5.20;3.15;;;16.90;88.30;;;16.77;70.57;96791.25;5010434;28;20044;-62
2022/08/14 01:25:41;;;;;;;5.68;3.35;;;16.80;88.20;;;16.76;70.78;96792.25;5024416;28;20037;-62
2022/08/14 01:28:07;;;;;;;6.25;3.33;;;16.80;88.50;;;16.77;71.14;96798.41;5025723;28;20037;-62
2022/08/14 01:30:37;;;;;;;3.72;3.10;;;16.80;88.80;;;16.76;71.12;96794.91;5022574;28;20026;-62
2022/08/14 01:33:03;;;;;;;5.25;3.20;;;16.90;88.80;;;16.76;71.17;96800.22;5021621;28;20025;-62
2022/08/14 01:35:29;;;;;;;4.78;3.05;;;16.90;88.90;;;16.78;70.53;96794.81;5021783;28;20371;-62
2022/08/14 01:37:56;;;;;;;4.85;2.78;;;16.90;88.40;;;16.81;70.08;96799.88;5024361;28;20436;-63
2022/08/14 01:40:28;;;;;;;5.10;3.30;;;16.90;88.20;;;16.82;69.94;96790.94;5039658;22;20006;-46
2022/08/14 01:42:54;;;;;;;5.78;3.03;;;16.90;89.10;;;16.82;70.31;96780.28;5042265;28;20455;-47
2022/08/14 01:45:20;;;;;;;4.20;3.17;;;16.90;88.40;;;16.80;70.18;96783.06;5024195;28;20380;-48
2022/08/14 01:47:46;;;;;;;4.13;3.10;;;16.90;88.40;;;16.79;70.10;96793.81;5043593;28;20032;-47
2022/08/14 01:50:12;;;;;;;3.22;2.47;;;16.90;88.20;;;16.82;69.03;96790.94;5044039;28;20036;-50
2022/08/14 01:52:38;;;;;;;4.25;2.72;;;16.90;87.70;;;16.84;68.79;96790.88;5042016;28;20037;-49
2022/08/14 01:55:12;;;;;;;4.00;2.70;;;16.90;87.50;;;16.80;69.42;96777.75;5041272;28;20504;-48
2022/08/14 01:57:42;;;;;;;3.92;2.50;;;16.90;88.00;;;16.75;70.17;96771.03;5042834;28;20033;-49
2022/08/14 02:00:14;;;;;;;3.33;2.78;;;16.80;88.50;;;16.71;70.34;96772.22;5041044;28;20017;-50
2022/08/14 02:02:39;;;;;;;3.17;2.78;;;16.80;88.70;;;16.61;70.34;96756.91;5041809;28;20029;-46
2022/08/14 02:05:11;;;;;;;3.22;2.60;;;16.70;88.70;;;16.57;70.74;96752.75;5043566;28;20036;-51
2022/08/14 02:07:36;;;;;;;3.63;2.90;;;16.70;89.10;;;16.58;71.08;96759.78;5042166;28;20128;-47
2022/08/14 02:10:04;;;;;;;3.60;2.97;;;16.60;89.30;;;16.55;71.68;96751.19;5042070;28;20496;-49
2022/08/14 02:12:29;;;;;;;4.82;3.17;;;16.60;89.70;;;16.49;71.94;96749.81;5043761;28;20045;-51
2022/08/14 02:14:55;;;;;;;4.63;3.00;;;16.60;90.00;;;16.50;70.88;96761.31;5043983;28;20036;-48
2022/08/14 02:17:22;;;;;;;3.22;2.55;;;16.60;89.80;;;16.46;71.50;96768.66;5042543;28;20567;-51
2022/08/14 02:19:49;;;;;;;2.65;2.20;;;16.60;89.70;;;16.43;71.69;96771.53;5041477;28;20044;-50
2022/08/14 02:22:17;;;;;;;3.45;2.55;;;16.60;89.90;;;16.40;71.72;96767.28;5042411;28;20035;-47
2022/08/14 02:24:44;;;;;;;3.55;2.60;;;16.50;90.00;;;16.38;72.00;96758.56;5042112;28;20029;-50
2022/08/14 02:27:10;;;;;;;2.50;2.30;;;16.50;90.10;;;16.34;73.09;96758.88;5043473;28;20045;-47
2022/08/14 02:29:36;;;;;;;2.83;2.13;;;16.40;90.40;;;16.29;72.93;96758.34;5041889;28;20088;-48
2022/08/14 02:32:02;;;;;;;3.00;2.38;;;16.40;90.40;;;16.27;72.63;96758.44;5042919;28;20083;-50
2022/08/14 02:34:33;;;;;;;2.42;2.22;;;16.40;90.30;;;16.24;72.19;96750.69;5040873;28;20045;-48
2022/08/14 02:37:09;;;;;;;2.45;2.15;;;16.30;90.10;;;16.19;72.01;96745.69;5041642;28;20075;-51
2022/08/14 02:39:40;;;;;;;3.30;2.25;;;16.30;90.20;;;16.17;72.24;96747.59;5024693;28;20017;-50
2022/08/14 02:42:11;;;;;;;3.83;2.08;;;16.20;90.20;;;16.16;72.60;96739.72;5024534;28;20040;-47
2022/08/14 02:44:38;;;;;;;5.18;2.42;;;16.20;90.40;;;16.09;73.17;96727.81;5042202;28;20115;-48
2022/08/14 02:47:07;;;;;;;4.38;2.40;;;16.20;90.70;;;16.09;73.70;96733.13;5042961;28;20500;-49
2022/08/14 02:49:33;;;;;;;2.95;2.65;;;16.20;90.90;;;16.06;73.59;96728.03;5042097;28;20078;-48
2022/08/14 02:52:00;;;;;;;4.38;2.72;;;16.10;90.80;;;16.03;73.56;96721.13;5042770;28;20179;-49
2022/08/14 02:54:26;;;;;;;4.10;2.60;;;16.10;90.80;;;16.02;73.82;96720.28;5041785;28;20033;-49
2022/08/14 02:56:56;;;;;;;5.43;2.95;;;16.10;90.80;;;15.98;74.59;96708.13;5041244;28;20029;-48
2022/08/14 02:59:24;;;;;;;3.53;2.50;;;16.10;91.20;;;15.93;75.37;96714.72;5041821;28;20472;-46
2022/08/14 03:01:50;;;;;;;3.08;2.47;;;16.00;91.40;;;15.86;75.52;96714.28;5042208;28;20123;-47
2022/08/14 03:04:16;;;;;;;3.28;2.40;;;15.90;91.50;;;15.79;75.57;96703.25;5043524;28;20029;-46
2022/08/14 03:06:42;;;;;;;2.70;2.35;;;15.90;91.60;;;15.76;75.65;96705.28;5042268;28;20089;-47
2022/08/14 03:09:10;;;;;;;3.95;2.40;;;15.90;91.60;;;15.73;75.68;96697.47;5041978;28;20508;-47
2022/08/14 03:11:36;;;;;;;3.10;2.40;;;15.90;91.70;;;15.69;75.88;96690.69;5040463;28;20232;-50
2022/08/14 03:14:03;;;;;;;3.22;2.30;;;15.80;92.10;;;15.68;75.75;96692.47;5040739;28;20464;-47
2022/08/14 03:16:34;;;;;;;2.60;2.13;;;15.80;91.70;;;15.70;75.03;96698.50;5021053;28;20167;-48
2022/08/14 03:19:01;;;;;;;2.63;2.22;;;15.80;91.50;;;15.69;75.51;96688.00;5025488;28;20100;-47
2022/08/14 03:21:32;;;;;;;3.08;2.13;;;15.80;91.70;;;15.67;75.80;96690.78;5039985;28;20570;-47
2022/08/14 03:24:10;;;;;;;3.58;2.20;;;15.80;91.80;;;15.66;76.29;96697.88;5040058;28;20024;-50
2022/08/14 03:26:42;;;;;;;3.75;2.30;;;15.80;91.90;;;15.64;76.41;96690.97;5041074;28;20032;-48
2022/08/14 03:29:11;;;;;;;3.83;2.28;;;15.70;92.00;;;15.61;76.73;96677.88;5044084;28;20484;-45
2022/08/14 03:31:39;;;;;;;2.75;2.25;;;15.70;92.10;;;15.58;77.14;96676.31;5022076;28;20362;-44
2022/08/14 03:34:09;;;;;;;3.47;2.47;;;15.70;92.30;;;15.58;77.96;96670.16;5043581;28;20029;-48
2022/08/14 03:36:37;;;;;;;3.97;2.70;;;15.70;92.60;;;15.54;78.21;96666.84;5039540;28;20102;-50
2022/08/14 03:39:06;;;;;;;3.67;2.63;;;15.70;92.70;;;15.54;78.57;96668.63;5041286;28;20082;-48
2022/08/14 03:41:34;;;;;;;3.40;2.63;;;15.70;92.80;;;15.52;78.51;96666.09;5041273;28;20028;-47
2022/08/14 03:44:03;;;;;;;3.92;2.55;;;15.70;92.80;;;15.46;79.14;96659.38;5040915;28;20032;-47
2022/08/14 03:46:33;;;;;;;2.85;2.47;;;15.60;93.00;;;15.46;79.10;96662.03;5041473;28;20025;-50
2022/08/14 03:49:01;;;;;;;5.10;2.42;;;15.60;93.00;;;15.42;79.30;96668.53;5041864;28;20666;-49
2022/08/14 03:51:27;;;;;;;3.28;2.35;;;15.60;93.10;;;15.38;79.75;96669.69;5039994;28;20033;-46
2022/08/14 03:53:56;;;;;;;3.00;2.58;;;15.50;93.30;;;15.35;80.17;96669.91;5040284;28;20273;-46
2022/08/14 03:56:25;;;;;;;5.30;2.88;;;15.50;93.50;;;15.32;80.70;96674.56;5040313;28;20053;-48
2022/08/14 03:58:55;;;;;;;4.00;2.83;;;15.40;93.70;;;15.29;81.31;96665.03;5039366;28;20056;-44
2022/08/14 04:01:23;;;;;;;2.88;2.55;;;15.40;94.00;;;15.24;81.65;96664.47;5022147;28;20065;-50
2022/08/14 04:03:53;;;;;;;3.60;2.67;;;15.30;94.10;;;15.21;81.82;96664.66;5042211;28;20032;-49
2022/08/14 04:06:20;;;;;;;3.05;2.63;;;15.30;94.20;;;15.15;82.10;96662.44;5039119;28;20029;-47
2022/08/14 04:08:52;;;;;;;3.28;2.40;;;15.30;94.30;;;15.17;81.94;96672.00;5042670;28;20033;-49
2022/08/14 04:11:19;;;;;;;3.23;2.80;;;15.30;94.30;;;15.18;82.38;96664.88;5040060;28;20032;-46
2022/08/14 04:13:47;;;;;;;3.60;2.90;;;15.30;94.50;;;15.19;82.91;96663.94;5043365;28;20033;-46
2022/08/14 04:16:19;;;;;;;4.45;2.60;;;15.30;94.70;;;15.17;82.85;96663.19;5040332;28;20504;-47
2022/08/14 04:18:48;;;;;;;4.57;3.10;;;15.30;94.70;;;15.17;82.71;96665.84;5039924;28;20049;-49
2022/08/14 04:21:15;;;;;;;3.00;2.50;;;15.30;94.70;;;15.17;83.31;96664.03;5040560;28;20484;-45
2022/08/14 04:23:42;;;;;;;4.53;2.92;;;15.30;94.90;;;15.15;83.21;96657.97;5039187;28;20048;-47
2022/08/14 04:26:11;;;;;;;3.60;2.70;;;15.30;94.90;;;15.18;83.10;96651.59;5023324;28;20125;-43
2022/08/14 04:28:39;;;;;;;4.25;2.50;;;15.30;94.90;;;15.20;83.13;96649.69;5041008;28;20037;-49
2022/08/14 04:31:06;;;;;;;4.10;2.65;;;15.30;95.00;;;15.22;83.64;96647.78;5040940;28;20037;-49
2022/08/14 04:33:32;;;;;;;4.05;2.70;;;15.30;95.00;;;15.21;83.21;96638.94;5040993;28;20036;-46
2022/08/14 04:35:58;;;;;;;4.00;2.60;;;15.40;95.00;;;15.28;82.13;96656.19;5040031;28;20235;-47
2022/08/14 04:43:54;;;;;;;3.20;2.50;;;15.50;94.90;;;15.44;82.75;96647.19;5041764;28;20083;-46
2022/08/14 04:46:22;;;;;;;3.42;2.80;;;15.50;95.00;;;15.51;82.52;96651.09;5044564;28;20746;-47
2022/08/14 04:48:49;;;;;;;4.55;2.90;;;15.60;94.90;;;15.55;81.66;96649.94;5044198;28;20036;-45
2022/08/14 04:51:19;;;;;;;3.00;2.65;;;15.70;94.80;;;15.66;81.38;96649.19;5046044;28;20021;-46
2022/08/14 04:53:48;;;;;;;2.72;2.22;;;15.70;94.70;;;15.76;81.26;96655.59;5042389;28;20036;-45
2022/08/14 04:56:21;;;;;;;7.10;2.80;;;15.80;94.70;;;15.84;80.93;96655.94;5043856;28;20032;-44
2022/08/14 04:58:54;;;;;;;3.88;2.40;;;15.90;94.60;;;15.93;80.46;96662.38;5041952;28;20033;-45
2022/08/14 05:01:20;;;;;;;3.13;2.20;;;16.00;94.40;;;16.03;79.86;96666.13;5043069;28;20262;-45
2022/08/14 05:03:46;;;;;;;3.67;2.33;;;16.10;94.30;;;16.11;79.81;96662.91;5027899;28;20477;-47
2022/08/14 05:06:13;;;;;;;4.10;2.40;;;16.20;94.30;;;16.17;79.03;96662.47;5044344;28;20544;-48
2022/08/14 05:08:39;;;;;;;3.10;2.40;;;16.30;94.10;;;16.33;78.14;96672.88;5044130;28;20036;-48
2022/08/14 05:11:06;;;;;;;2.70;2.10;;;16.40;93.70;;;16.44;77.69;96661.47;5044831;28;20045;-46
2022/08/14 05:13:35;;;;;;;4.20;2.63;;;16.50;93.60;;;16.55;77.42;96666.00;5044938;28;20029;-48
2022/08/14 05:16:03;;;;;;;3.25;2.30;;;16.60;93.50;;;16.66;77.91;96667.88;5043287;28;20025;-46
2022/08/14 05:18:33;;;;;;;3.88;2.42;;;16.70;93.60;;;16.78;77.75;96667.00;5044486;28;20025;-46
2022/08/14 05:21:03;;;;;;;3.13;2.35;;;16.90;93.60;;;16.91;76.09;96674.94;5027545;28;20071;-47
2022/08/14 05:23:33;;;;;;;3.72;2.40;;;17.00;93.20;;;17.06;74.57;96667.63;5043511;28;20074;-48
2022/08/14 05:26:01;;;;;;;4.13;2.63;;;17.10;92.60;;;17.21;73.77;96665.63;5044416;28;20432;-48
2022/08/14 05:28:33;;;;;;;2.63;2.33;;;17.30;92.30;;;17.32;73.35;96655.84;5041770;28;20099;-45
2022/08/14 05:31:07;;;;;;;3.05;2.35;;;17.40;92.00;;;17.44;72.85;96655.88;5027013;28;20550;-46
2022/08/14 05:33:35;;;;;;;3.10;2.60;;;17.50;91.90;;;17.52;72.35;96669.47;5025986;28;20041;-47
2022/08/14 05:36:08;;;;;;;2.80;2.35;;;17.60;91.70;;;17.58;72.13;96658.34;5041953;28;20422;-45
2022/08/14 05:38:44;;;;;;;2.95;2.30;;;17.70;91.60;;;17.63;71.96;96656.16;5044770;28;20108;-46
2022/08/14 05:41:13;;;;;;;3.00;2.40;;;17.70;91.50;;;17.68;71.87;96656.66;5043349;28;20029;-45
2022/08/14 05:43:40;;;;;;;4.85;2.10;;;17.80;91.50;;;17.72;71.02;96657.28;5041358;28;20036;-48
2022/08/14 05:46:09;;;;;;;4.78;2.63;;;17.80;91.20;;;17.75;69.10;96646.38;5043729;28;20063;-51
2022/08/14 05:48:35;;;;;;;4.40;2.20;;;17.90;90.70;;;17.86;67.68;96646.41;5027678;28;20280;-45
2022/08/14 05:51:01;;;;;;;3.17;2.30;;;17.90;90.10;;;17.90;66.93;96639.84;5043446;28;20044;-46
2022/08/14 05:53:27;;;;;;;2.72;2.00;;;18.00;89.70;;;18.02;66.51;96637.22;5041698;28;20394;-45
2022/08/14 05:55:54;;;;;;;2.20;2.00;;;18.10;89.30;;;18.10;65.91;96646.28;5043537;28;20513;-50
2022/08/14 05:58:21;;;;;;;3.63;2.35;;;18.20;88.80;;;18.21;65.31;96647.25;5042708;28;20608;-45
2022/08/14 06:00:49;;;;;;;4.15;2.25;;;18.30;88.40;;;18.28;64.83;96654.63;5044095;28;20538;-47
2022/08/14 06:03:18;;;;;;;4.68;2.47;;;18.40;88.00;;;18.35;64.50;96655.00;5026648;28;20485;-46
2022/08/14 06:05:46;;;;;;;3.90;2.20;;;18.50;87.70;;;18.37;63.91;96654.88;5040909;28;20048;-48
2022/08/14 06:08:28;;;;;;;2.95;2.13;;;18.50;87.20;;;18.39;63.75;96650.28;5043925;28;20028;-45
2022/08/14 06:11:04;;;;;;;2.70;2.17;;;18.50;87.00;;;18.38;64.02;96651.25;5025523;28;20047;-47
2022/08/14 06:13:32;;;;;;;2.95;2.17;;;18.50;87.10;;;18.46;64.28;96657.66;5028673;28;20037;-46
2022/08/14 06:15:58;;;;;;;3.10;2.17;;;18.50;87.40;;;18.49;63.84;96659.25;5043273;28;20028;-48
2022/08/14 06:18:24;;;;;;;3.33;2.28;;;18.60;87.20;;;18.53;63.24;96647.34;5043197;28;20499;-48
2022/08/14 06:20:50;;;;;;;5.47;2.60;;;18.60;86.60;;;18.57;62.53;96645.25;5043595;28;20040;-46
2022/08/14 06:23:16;;;;;;;3.22;2.05;;;18.60;86.10;;;18.59;62.13;96641.50;5041588;28;20519;-49
2022/08/14 06:25:43;;;;;;;3.15;2.00;;;18.70;85.80;;;18.69;61.89;96644.25;5042580;28;20033;-48
2022/08/14 06:28:19;;;;;;;3.13;2.22;;;18.80;85.80;;;18.81;61.80;96650.44;5042127;28;20104;-48
2022/08/14 06:30:45;;;;;;;2.83;1.73;;;18.90;85.60;;;18.79;61.54;96614.97;5043658;28;20067;-48
2022/08/14 06:33:11;;;;;;;3.05;2.25;;;19.00;85.30;;;19.03;61.17;96633.50;5042156;28;20511;-47
2022/08/14 06:35:36;;;;;;;2.83;2.45;;;19.10;85.10;;;19.14;60.73;96633.44;5039570;28;20548;-49
2022/08/14 06:38:02;;;;;;;2.78;2.10;;;19.20;84.90;;;19.15;60.49;96619.13;5041511;28;20051;-47
2022/08/14 06:40:35;;;;;;;2.80;1.90;;;19.30;84.60;;;19.36;59.87;96631.63;5041697;28;20124;-48
2022/08/14 06:43:08;;;;;;;2.45;2.00;;;19.40;84.20;;;19.45;59.25;96618.34;5023474;28;20055;-48
2022/08/14 06:45:35;;;;;;;3.35;2.45;;;19.60;83.60;;;19.53;58.83;96619.53;5042063;28;20078;-45
2022/08/14 06:48:02;;;;;;;3.03;2.45;;;19.60;83.00;;;19.61;57.33;96617.00;5042418;28;20476;-46
2022/08/14 06:50:30;;;;;;;3.33;2.60;;;19.70;82.30;;;19.73;56.81;96605.28;5041424;28;20033;-46
2022/08/14 06:52:57;;;;;;;3.03;2.20;;;19.80;81.80;;;19.87;56.43;96612.13;5042144;28;20179;-45
2022/08/14 06:55:23;;;;;;;3.38;2.10;;;19.90;81.30;;;20.00;54.82;96607.38;5041168;28;20029;-47
2022/08/14 06:57:50;;;;;;;2.42;1.90;;;20.10;80.70;;;20.11;54.52;96603.75;5039953;28;20059;-47
2022/08/14 07:00:24;;;;;;;2.03;1.70;;;20.20;80.00;;;20.30;53.76;96608.34;5039765;28;20024;-46
2022/08/14 07:05:47;;;;;;;2.42;2.22;;;20.50;78.60;;;20.66;51.99;96598.03;5038277;28;20044;-47
2022/08/14 07:08:25;;;;;;;4.10;2.10;;;20.70;77.70;;;20.93;51.25;96599.19;5040835;28;20633;-46
2022/08/14 07:10:53;;;;;;;2.58;2.00;;;21.00;77.10;;;21.17;50.74;96596.06;5041413;28;20051;-46
2022/08/14 07:13:20;;;;;;;2.17;1.92;;;21.20;76.70;;;21.39;50.36;96589.56;5040560;28;20037;-46
2022/08/14 07:15:52;;;;;;;6.60;2.20;;;21.40;76.10;;;21.57;49.30;96589.69;5040959;28;20033;-45
2022/08/14 07:18:24;;;;;;;2.75;2.40;;;21.60;75.50;;;21.71;49.39;96588.34;5041163;28;20108;-47
2022/08/14 07:20:52;;;;;;;2.15;1.95;;;21.70;74.80;;;21.81;48.10;96580.28;5041435;28;20087;-46
2022/08/14 07:23:18;;;;;;;3.75;2.10;;;21.80;73.90;;;21.98;48.21;96595.59;5040717;28;20544;-48
2022/08/14 07:25:45;;;;;;;3.33;2.50;;;21.90;73.50;;;22.08;47.56;96598.25;5038968;28;20033;-46
2022/08/14 07:28:18;;;;;;;2.33;2.13;;;22.00;73.20;;;22.19;47.88;96598.06;5041011;28;20025;-47
2022/08/14 07:30:44;;;;;;;2.38;2.05;;;22.10;73.40;;;22.26;47.41;96593.81;5039553;28;20379;-49
2022/08/14 07:33:11;;;;;;;2.55;2.05;;;22.20;73.00;;;22.37;47.00;96603.50;5038880;28;20645;-46
2022/08/14 07:35:39;;;;;;;4.13;2.40;;;22.30;72.50;;;22.44;47.03;96599.22;5021218;28;20056;-48
2022/08/14 07:38:06;;;;;;;2.70;1.95;;;22.40;72.40;;;22.52;46.84;96598.47;5040076;28;20035;-47
2022/08/14 07:40:33;;;;;;;2.63;2.40;;;22.50;72.10;;;22.65;46.30;96611.56;5004853;28;1012775;-43
2022/08/14 07:43:00;;;;;;;2.38;2.17;;;22.60;71.60;;;22.72;45.91;96618.03;5028255;22;20422;-47
2022/08/14 07:45:27;;;;;;;5.05;2.17;;;22.60;71.10;;;22.80;45.01;96611.88;5030501;28;20034;-48
2022/08/14 07:47:56;;;;;;;2.20;1.90;;;22.70;71.20;;;22.91;45.08;96610.81;5029808;28;20033;-49
2022/08/14 07:50:23;;;;;;;2.35;1.90;;;22.80;69.80;;;22.96;43.86;96606.66;5032836;28;20033;-52
2022/08/14 07:52:49;;;;;;;4.85;2.20;;;22.90;68.50;;;23.12;43.97;96615.94;5013012;28;20080;-49
2022/08/14 07:55:17;;;;;;;3.28;1.98;;;23.00;68.50;;;23.24;43.61;96614.69;5012938;28;20030;-50
2022/08/14 07:57:46;;;;;;;2.30;1.90;;;23.10;68.30;;;23.36;42.62;96613.44;5013236;28;20060;-47
2022/08/14 08:00:16;;;;;;;3.60;1.75;;;23.30;67.20;;;23.51;42.19;96608.34;5014652;28;20022;-49
2022/08/14 08:02:46;;;;;;;2.25;1.70;;;23.40;66.10;;;23.63;41.37;96599.03;5013931;28;20418;-48
2022/08/14 08:05:14;;;;;;;4.63;1.98;;;23.50;65.40;;;23.75;41.77;96607.66;5012619;28;20410;-48
2022/08/14 08:07:43;;;;;;;2.03;1.80;;;23.60;65.00;;;23.89;41.08;96610.81;5010406;28;20128;-47
2022/08/14 08:10:31;;;;;;;2.42;1.77;;;23.80;64.50;;;24.03;40.45;96612.94;5013404;28;20436;-51
2022/08/14 08:13:06;;;;;;;3.35;1.90;;;23.90;63.90;;;24.15;39.67;96608.91;5012087;28;20040;-51
2022/08/14 08:15:38;;;;;;;2.63;2.08;;;24.00;62.30;;;24.16;39.54;96604.41;5012774;28;20474;-48
2022/08/14 08:18:06;;;;;;;1.95;1.83;;;24.10;62.00;;;24.27;38.93;96596.03;5014586;28;20036;-51
2022/08/14 08:20:44;;;;;;;2.40;2.20;;;24.20;61.80;;;24.41;38.92;96597.25;5002732;28;20033;-50
2022/08/14 08:23:09;;;;;;;3.30;1.92;;;24.20;61.50;;;24.37;39.30;96595.88;5017563;28;20034;-49
2022/08/14 08:25:41;;;;;;;2.75;2.40;;;24.30;61.40;;;24.46;39.27;96603.00;5013348;28;20367;-51
2022/08/14 08:28:22;;;;;;;2.85;2.20;;;24.30;62.00;;;24.51;39.46;96606.03;5013467;28;20038;-48
2022/08/14 08:30:57;;;;;;;2.63;2.22;;;24.40;61.60;;;24.48;38.71;96592.91;5014891;28;20500;-47
2022/08/14 08:33:26;;;;;;;3.28;2.05;;;24.40;60.70;;;24.63;38.99;96590.44;5016341;28;20572;-47
2022/08/14 08:35:56;;;;;;;4.13;2.13;;;24.50;61.00;;;24.74;38.46;96589.28;5015228;28;20077;-50
2022/08/14 08:38:27;;;;;;;3.00;2.20;;;24.60;60.40;;;24.80;38.44;96594.03;5017019;28;20052;-49
2022/08/14 08:40:58;;;;;;;2.25;2.05;;;24.70;60.00;;;24.90;38.58;96597.41;5016260;28;20038;-49
2022/08/14 08:43:31;;;;;;;2.20;1.90;;;24.80;60.20;;;25.01;38.46;96598.09;4999713;28;20018;-49
2022/08/14 08:45:59;;;;;;;3.45;1.90;;;24.90;60.10;;;25.12;38.23;96605.88;5012931;28;20044;-48
2022/08/14 08:48:29;;;;;;;2.25;1.95;;;25.00;59.70;;;25.20;38.19;96603.19;5017173;28;20489;-50
2022/08/14 08:50:59;;;;;;;2.42;2.22;;;25.10;59.50;;;25.22;38.11;96597.63;5015492;28;21276;-51
2022/08/14 08:53:33;;;;;;;3.45;2.40;;;25.10;59.50;;;25.27;37.99;96593.44;5013700;28;20494;-49
2022/08/14 08:55:59;;;;;;;3.35;2.08;;;25.10;59.10;;;25.37;37.92;96589.72;5015437;28;20033;-47
2022/08/14 08:58:26;;;;;;;3.33;2.08;;;25.20;59.50;;;25.45;37.26;96592.44;5013892;28;20030;-47
2022/08/14 09:00:55;;;;;;;4.10;2.17;;;25.30;58.60;;;25.48;37.00;96583.97;4996987;28;20038;-48
2022/08/14 09:03:25;;;;;;;3.55;2.15;;;25.40;58.30;;;25.47;37.24;96564.25;5012767;28;20038;-51
2022/08/14 09:05:55;;;;;;;4.63;2.20;;;25.40;58.40;;;25.62;37.47;96564.38;5012981;28;20041;-51
2022/08/14 09:08:25;;;;;;;3.03;2.30;;;25.50;58.70;;;25.64;36.87;96562.34;5016861;28;20103;-52
2022/08/14 09:10:53;;;;;;;2.67;2.17;;;25.50;58.00;;;25.75;35.63;96560.31;5014537;28;20474;-48
2022/08/14 09:13:24;;;;;;;5.47;2.47;;;25.60;56.80;;;25.84;36.35;96570.06;5015196;28;20136;-49
2022/08/14 09:15:50;;;;;;;2.60;2.30;;;25.70;57.50;;;25.90;35.76;96561.31;5016867;28;20428;-47
2022/08/14 09:18:18;;;;;;;3.95;2.10;;;25.80;57.10;;;26.06;35.26;96555.88;5015563;28;20321;-49
2022/08/14 09:20:47;;;;;;;3.05;2.30;;;25.90;56.10;;;26.27;35.71;96558.00;5016919;28;20102;-47
2022/08/14 09:23:14;;;;;;;2.92;2.30;;;26.10;56.30;;;26.42;34.79;96555.38;5015152;28;20375;-50
2022/08/14 09:25:46;;;;;;;3.03;2.17;;;26.30;55.70;;;26.57;33.84;96557.31;5014321;28;20128;-48
2022/08/14 09:28:15;;;;;;;3.40;2.30;;;26.40;54.40;;;26.58;33.43;96559.03;5012574;28;20030;-49
2022/08/14 09:30:49;;;;;;;2.38;2.17;;;26.50;54.00;;;26.70;33.84;96562.19;5012016;28;20350;-47
2022/08/14 09:33:33;;;;;;;2.35;2.15;;;26.50;54.10;;;26.74;33.76;96564.38;5013939;28;20077;-47
2022/08/14 09:36:34;;;;;;;6.32;2.50;;;26.60;54.20;;;26.87;33.37;96576.47;4996211;28;20304;-48
2022/08/14 09:39:30;;;;;;;2.65;2.42;;;26.70;53.90;;;26.91;33.71;96577.78;5013341;28;20029;-49
2022/08/14 09:42:31;;;;;;;2.35;2.10;;;26.80;53.70;;;26.99;33.25;96575.00;4997558;28;20134;-48
2022/08/14 09:45:12;;;;;;;2.92;2.60;;;26.80;53.90;;;26.98;33.30;96576.88;4999251;28;20497;-48
2022/08/14 09:47:46;;;;;;;5.43;2.50;;;26.80;53.70;;;27.04;33.32;96564.47;5012770;28;20136;-49
2022/08/14 09:50:55;;;;;;;2.47;2.28;;;26.80;53.40;;;26.97;33.25;96542.75;5015042;28;20048;-47
2022/08/14 09:53:42;;;;;;;2.58;2.10;;;26.90;53.40;;;27.16;33.34;96554.91;4989793;28;20540;-48
2022/08/14 09:56:10;;;;;;;4.05;2.55;;;27.00;53.50;;;27.26;32.95;96553.81;5013532;28;20435;-50
2022/08/14 09:58:42;;;;;;;3.30;2.42;;;27.10;53.00;;;27.24;32.68;96543.19;5012040;28;20470;-48
2022/08/14 10:01:14;;;;;;;5.10;3.00;;;27.20;52.70;;;27.26;32.45;96541.16;5008249;28;20305;-48
2022/08/14 10:03:54;;;;;;;2.50;2.30;;;27.10;52.30;;;27.29;32.20;96531.84;5014716;28;20346;-47
2022/08/14 10:06:26;;;;;;;2.47;2.20;;;27.20;52.70;;;27.35;32.63;96534.66;5014092;28;20668;-49
2022/08/14 10:09:01;;;;;;;2.85;2.55;;;27.20;52.80;;;27.47;31.85;96526.94;5014462;28;20041;-50
2022/08/14 10:11:34;;;;;;;2.33;2.00;;;27.30;52.00;;;27.51;32.93;96527.41;5011168;28;20057;-48
2022/08/14 10:14:16;;;;;;;5.05;2.50;;;27.30;52.20;;;27.57;32.35;96535.63;5011429;28;20037;-49
2022/08/14 10:16:53;;;;;;;3.67;2.53;;;27.40;52.30;;;27.66;32.42;96524.72;5014165;28;20301;-47
2022/08/14 10:19:22;;;;;;;2.90;2.60;;;27.50;52.10;;;27.66;32.26;96514.72;5012540;28;20026;-47
2022/08/14 10:22:02;;;;;;;2.50;2.30;;;27.50;52.00;;;27.72;31.92;96507.72;5013972;28;20029;-47
2022/08/14 10:24:36;;;;;;;5.93;2.60;;;27.50;52.20;;;27.73;31.95;96487.75;5013790;28;20024;-48
2022/08/14 10:27:01;;;;;;;4.78;2.60;;;27.60;51.50;;;27.81;31.59;96479.50;4998223;28;20486;-51
2022/08/14 10:29:38;;;;;;;2.60;2.40;;;27.60;51.20;;;27.97;31.31;96484.75;5014184;28;20065;-48
2022/08/14 10:32:05;;;;;;;2.75;2.55;;;27.70;51.40;;;27.90;31.14;96456.75;5015047;28;20502;-48
2022/08/14 10:34:34;;;;;;;4.40;3.05;;;27.80;51.00;;;27.97;31.17;96468.50;4997947;28;20753;-46
2022/08/14 10:37:08;;;;;;;2.75;2.55;;;27.80;50.40;;;28.03;31.17;96480.44;5014042;28;20038;-51
2022/08/14 10:39:35;;;;;;;3.40;2.80;;;27.90;50.80;;;28.03;31.26;96466.06;5011429;28;20033;-49
2022/08/14 10:42:13;;;;;;;2.97;2.50;;;27.90;51.00;;;28.06;31.53;96468.41;5014002;28;20398;-49
2022/08/14 10:44:46;;;;;;;2.95;2.58;;;27.90;50.80;;;28.10;30.92;96472.41;5016213;28;20022;-48